Decoded Metar for K2J9 ( in ) (IATA:) | Meteo·Mobile Aviation Weather
aviador You're here:

K2J9 Decoded Metar

in
Report Time2018-09-22 18:15:00
UTC Time2018-09-22 18:28:29
Flight Rules vfr VFR
WindVRB at 04 Gusting to 12 kt
Visibility9999 m
Phenomena:N/A
Clouds:Few 043 Hf
Expected CloudBase > 5,600 ft AGL from Temp-Dew spread
CeilingNone
Temp33°C
Dew Point19°C (44% RH)
Heat Index34.7°C
QNH1017 hPa
Raw Report
METAR K2J9 221815Z AUTO VRB04G12KT 10SM FEW043 33/19 A3004 RMK AO2=

Extra information for K2J9:More info

Social comments